sensor_id;sensor_type;location;lat;lon;timestamp;temperature;humidity
65598;SHT31;52267;51.984;20.956;2023-07-20T00:00:22;17.02;64.01
65598;SHT31;52267;51.984;20.956;2023-07-20T00:03:10;17.02;64.35
65598;SHT31;52267;51.984;20.956;2023-07-20T00:05:45;16.98;64.50
65598;SHT31;52267;51.984;20.956;2023-07-20T00:08:12;16.92;65.81
65598;SHT31;52267;51.984;20.956;2023-07-20T00:10:40;16.85;65.49
65598;SHT31;52267;51.984;20.956;2023-07-20T00:13:08;16.87;64.91
65598;SHT31;52267;51.984;20.956;2023-07-20T00:15:37;16.89;64.82
65598;SHT31;52267;51.984;20.956;2023-07-20T00:18:04;16.90;64.90
65598;SHT31;52267;51.984;20.956;2023-07-20T00:20:31;16.90;64.80
65598;SHT31;52267;51.984;20.956;2023-07-20T00:22:58;16.91;64.96
65598;SHT31;52267;51.984;20.956;2023-07-20T00:25:26;16.88;65.56
65598;SHT31;52267;51.984;20.956;2023-07-20T00:27:53;16.83;66.03
65598;SHT31;52267;51.984;20.956;2023-07-20T00:30:20;16.81;66.23
65598;SHT31;52267;51.984;20.956;2023-07-20T00:32:47;16.75;66.06
65598;SHT31;52267;51.984;20.956;2023-07-20T00:35:14;16.71;65.92
65598;SHT31;52267;51.984;20.956;2023-07-20T00:37:41;16.70;65.75
65598;SHT31;52267;51.984;20.956;2023-07-20T00:40:08;16.68;65.94
65598;SHT31;52267;51.984;20.956;2023-07-20T00:42:36;16.63;66.58
65598;SHT31;52267;51.984;20.956;2023-07-20T00:45:03;16.57;66.74
65598;SHT31;52267;51.984;20.956;2023-07-20T00:47:31;16.54;66.77
65598;SHT31;52267;51.984;20.956;2023-07-20T00:49:59;16.56;66.23
65598;SHT31;52267;51.984;20.956;2023-07-20T00:52:26;16.55;66.30
65598;SHT31;52267;51.984;20.956;2023-07-20T00:54:55;16.55;66.47
65598;SHT31;52267;51.984;20.956;2023-07-20T00:57:23;16.53;66.40
65598;SHT31;52267;51.984;20.956;2023-07-20T00:59:52;16.53;66.46
65598;SHT31;52267;51.984;20.956;2023-07-20T01:02:19;16.47;66.73
65598;SHT31;52267;51.984;20.956;2023-07-20T01:04:46;16.46;66.72
65598;SHT31;52267;51.984;20.956;2023-07-20T01:09:58;16.49;66.86
65598;SHT31;52267;51.984;20.956;2023-07-20T01:12:46;16.51;67.00
65598;SHT31;52267;51.984;20.956;2023-07-20T01:15:14;16.53;67.08
65598;SHT31;52267;51.984;20.956;2023-07-20T01:17:44;16.54;66.99
65598;SHT31;52267;51.984;20.956;2023-07-20T01:20:22;16.56;67.14
65598;SHT31;52267;51.984;20.956;2023-07-20T01:23:13;16.55;67.18
65598;SHT31;52267;51.984;20.956;2023-07-20T01:26:08;16.49;67.46
65598;SHT31;52267;51.984;20.956;2023-07-20T01:32:36;16.45;67.35
65598;SHT31;52267;51.984;20.956;2023-07-20T01:35:34;16.39;67.62
65598;SHT31;52267;51.984;20.956;2023-07-20T01:38:20;16.34;67.67
65598;SHT31;52267;51.984;20.956;2023-07-20T01:41:06;16.35;67.61
65598;SHT31;52267;51.984;20.956;2023-07-20T01:43:52;16.31;67.81
65598;SHT31;52267;51.984;20.956;2023-07-20T01:46:39;16.27;67.73
65598;SHT31;52267;51.984;20.956;2023-07-20T01:49:15;16.22;67.79
65598;SHT31;52267;51.984;20.956;2023-07-20T01:51:51;16.17;67.76
65598;SHT31;52267;51.984;20.956;2023-07-20T01:54:37;16.16;67.78
65598;SHT31;52267;51.984;20.956;2023-07-20T01:57:18;16.12;68.13
65598;SHT31;52267;51.984;20.956;2023-07-20T02:00:00;16.03;68.15
65598;SHT31;52267;51.984;20.956;2023-07-20T02:02:45;15.98;68.05
65598;SHT31;52267;51.984;20.956;2023-07-20T02:05:31;15.91;68.44
65598;SHT31;52267;51.984;20.956;2023-07-20T02:08:07;15.85;68.63
65598;SHT31;52267;51.984;20.956;2023-07-20T02:10:54;15.80;68.97
65598;SHT31;52267;51.984;20.956;2023-07-20T02:13:39;15.76;69.00
65598;SHT31;52267;51.984;20.956;2023-07-20T02:16:19;15.76;68.67
65598;SHT31;52267;51.984;20.956;2023-07-20T02:18:57;15.73;68.72
65598;SHT31;52267;51.984;20.956;2023-07-20T02:21:41;15.69;68.96
65598;SHT31;52267;51.984;20.956;2023-07-20T02:24:22;15.70;68.80
65598;SHT31;52267;51.984;20.956;2023-07-20T02:27:00;15.72;68.78
65598;SHT31;52267;51.984;20.956;2023-07-20T02:29:35;15.71;69.14
65598;SHT31;52267;51.984;20.956;2023-07-20T02:32:02;15.71;69.17
65598;SHT31;52267;51.984;20.956;2023-07-20T02:34:30;15.73;69.14
65598;SHT31;52267;51.984;20.956;2023-07-20T02:36:57;15.72;69.56
65598;SHT31;52267;51.984;20.956;2023-07-20T02:39:25;15.72;69.71
65598;SHT31;52267;51.984;20.956;2023-07-20T02:41:54;15.75;69.40
65598;SHT31;52267;51.984;20.956;2023-07-20T02:44:21;15.77;69.56
65598;SHT31;52267;51.984;20.956;2023-07-20T02:46:48;15.77;69.77
65598;SHT31;52267;51.984;20.956;2023-07-20T02:49:18;15.79;69.88
65598;SHT31;52267;51.984;20.956;2023-07-20T02:51:46;15.80;70.02
65598;SHT31;52267;51.984;20.956;2023-07-20T02:54:14;15.81;70.28
65598;SHT31;52267;51.984;20.956;2023-07-20T02:56:41;15.80;70.32
65598;SHT31;52267;51.984;20.956;2023-07-20T02:59:08;15.80;70.39
65598;SHT31;52267;51.984;20.956;2023-07-20T03:01:35;15.75;70.40
65598;SHT31;52267;51.984;20.956;2023-07-20T03:04:02;15.71;70.59
65598;SHT31;52267;51.984;20.956;2023-07-20T03:06:30;15.68;71.12
65598;SHT31;52267;51.984;20.956;2023-07-20T03:08:58;15.68;70.85
65598;SHT31;52267;51.984;20.956;2023-07-20T03:11:25;15.64;70.97
65598;SHT31;52267;51.984;20.956;2023-07-20T03:13:52;15.64;71.15
65598;SHT31;52267;51.984;20.956;2023-07-20T03:16:19;15.70;70.77
65598;SHT31;52267;51.984;20.956;2023-07-20T03:18:48;15.80;70.54
65598;SHT31;52267;51.984;20.956;2023-07-20T03:21:15;15.84;70.32
65598;SHT31;52267;51.984;20.956;2023-07-20T03:23:42;15.85;70.27
65598;SHT31;52267;51.984;20.956;2023-07-20T03:26:09;15.87;70.29
65598;SHT31;52267;51.984;20.956;2023-07-20T03:28:37;15.87;70.47
65598;SHT31;52267;51.984;20.956;2023-07-20T03:31:05;15.89;70.65
65598;SHT31;52267;51.984;20.956;2023-07-20T03:33:33;15.91;70.63
65598;SHT31;52267;51.984;20.956;2023-07-20T03:36:01;15.96;70.67
65598;SHT31;52267;51.984;20.956;2023-07-20T03:38:28;15.97;70.77
65598;SHT31;52267;51.984;20.956;2023-07-20T03:40:56;16.02;70.83
65598;SHT31;52267;51.984;20.956;2023-07-20T03:43:27;16.06;70.44
65598;SHT31;52267;51.984;20.956;2023-07-20T03:45:55;16.08;70.23
65598;SHT31;52267;51.984;20.956;2023-07-20T03:48:23;16.08;70.26
65598;SHT31;52267;51.984;20.956;2023-07-20T03:50:52;16.09;70.18
65598;SHT31;52267;51.984;20.956;2023-07-20T03:53:20;16.08;70.62
65598;SHT31;52267;51.984;20.956;2023-07-20T03:55:51;16.11;71.10
65598;SHT31;52267;51.984;20.956;2023-07-20T03:58:19;16.13;70.52
65598;SHT31;52267;51.984;20.956;2023-07-20T04:00:48;16.12;71.71
65598;SHT31;52267;51.984;20.956;2023-07-20T04:03:18;16.11;71.05
65598;SHT31;52267;51.984;20.956;2023-07-20T04:05:46;16.09;71.22
65598;SHT31;52267;51.984;20.956;2023-07-20T04:08:13;16.07;71.35
65598;SHT31;52267;51.984;20.956;2023-07-20T04:10:43;16.04;72.29
65598;SHT31;52267;51.984;20.956;2023-07-20T04:13:11;16.04;72.50
65598;SHT31;52267;51.984;20.956;2023-07-20T04:15:39;16.03;72.10
65598;SHT31;52267;51.984;20.956;2023-07-20T04:18:06;16.05;73.27
65598;SHT31;52267;51.984;20.956;2023-07-20T04:20:33;16.08;73.44
65598;SHT31;52267;51.984;20.956;2023-07-20T04:23:00;16.11;73.26
65598;SHT31;52267;51.984;20.956;2023-07-20T04:25:27;16.12;73.40
65598;SHT31;52267;51.984;20.956;2023-07-20T04:27:54;16.13;74.21
65598;SHT31;52267;51.984;20.956;2023-07-20T04:30:22;16.14;73.74
65598;SHT31;52267;51.984;20.956;2023-07-20T04:32:49;16.13;74.45
65598;SHT31;52267;51.984;20.956;2023-07-20T04:35:18;16.12;73.97
65598;SHT31;52267;51.984;20.956;2023-07-20T04:38:15;16.13;74.91
65598;SHT31;52267;51.984;20.956;2023-07-20T04:40:44;16.13;74.70
65598;SHT31;52267;51.984;20.956;2023-07-20T04:43:13;16.14;74.15
65598;SHT31;52267;51.984;20.956;2023-07-20T04:45:41;16.14;74.53
65598;SHT31;52267;51.984;20.956;2023-07-20T04:48:12;16.16;74.92
65598;SHT31;52267;51.984;20.956;2023-07-20T04:50:42;16.18;74.96
65598;SHT31;52267;51.984;20.956;2023-07-20T04:53:12;16.21;74.85
65598;SHT31;52267;51.984;20.956;2023-07-20T04:55:40;16.20;74.49
65598;SHT31;52267;51.984;20.956;2023-07-20T04:58:12;16.18;75.14
65598;SHT31;52267;51.984;20.956;2023-07-20T05:00:40;16.22;75.00
65598;SHT31;52267;51.984;20.956;2023-07-20T05:03:07;16.22;75.03
65598;SHT31;52267;51.984;20.956;2023-07-20T05:05:34;16.24;75.74
65598;SHT31;52267;51.984;20.956;2023-07-20T05:08:01;16.25;75.58
65598;SHT31;52267;51.984;20.956;2023-07-20T05:10:28;16.25;76.31
65598;SHT31;52267;51.984;20.956;2023-07-20T05:12:55;16.25;76.62
65598;SHT31;52267;51.984;20.956;2023-07-20T05:15:24;16.30;76.77
65598;SHT31;52267;51.984;20.956;2023-07-20T05:17:51;16.37;76.85
65598;SHT31;52267;51.984;20.956;2023-07-20T05:20:19;16.41;76.78
65598;SHT31;52267;51.984;20.956;2023-07-20T05:22:47;16.45;76.73
65598;SHT31;52267;51.984;20.956;2023-07-20T05:25:15;16.51;76.53
65598;SHT31;52267;51.984;20.956;2023-07-20T05:27:44;16.55;76.51
65598;SHT31;52267;51.984;20.956;2023-07-20T05:30:12;16.55;76.27
65598;SHT31;52267;51.984;20.956;2023-07-20T05:32:40;16.56;76.57
65598;SHT31;52267;51.984;20.956;2023-07-20T05:35:07;16.60;76.83
65598;SHT31;52267;51.984;20.956;2023-07-20T05:37:35;16.64;76.79
65598;SHT31;52267;51.984;20.956;2023-07-20T05:40:02;16.68;76.87
65598;SHT31;52267;51.984;20.956;2023-07-20T05:42:30;16.73;76.89
65598;SHT31;52267;51.984;20.956;2023-07-20T05:44:58;16.80;76.87
65598;SHT31;52267;51.984;20.956;2023-07-20T05:47:25;16.85;76.38
65598;SHT31;52267;51.984;20.956;2023-07-20T05:49:52;16.85;76.50
65598;SHT31;52267;51.984;20.956;2023-07-20T05:52:19;16.86;76.93
65598;SHT31;52267;51.984;20.956;2023-07-20T05:54:46;16.88;76.33
65598;SHT31;52267;51.984;20.956;2023-07-20T05:57:13;16.88;76.89
65598;SHT31;52267;51.984;20.956;2023-07-20T05:59:41;16.92;77.09
65598;SHT31;52267;51.984;20.956;2023-07-20T06:02:10;16.95;76.93
65598;SHT31;52267;51.984;20.956;2023-07-20T06:04:38;16.98;76.93
65598;SHT31;52267;51.984;20.956;2023-07-20T06:07:06;17.01;77.00
65598;SHT31;52267;51.984;20.956;2023-07-20T06:09:36;17.04;77.15
65598;SHT31;52267;51.984;20.956;2023-07-20T06:12:03;17.07;77.14
65598;SHT31;52267;51.984;20.956;2023-07-20T06:14:31;17.10;77.04
65598;SHT31;52267;51.984;20.956;2023-07-20T06:16:58;17.15;77.04
65598;SHT31;52267;51.984;20.956;2023-07-20T06:19:26;17.20;77.18
65598;SHT31;52267;51.984;20.956;2023-07-20T06:21:53;17.25;77.00
65598;SHT31;52267;51.984;20.956;2023-07-20T06:24:20;17.33;77.19
65598;SHT31;52267;51.984;20.956;2023-07-20T06:26:48;17.41;77.21
65598;SHT31;52267;51.984;20.956;2023-07-20T06:29:15;17.50;77.77
65598;SHT31;52267;51.984;20.956;2023-07-20T06:31:42;17.58;77.84
65598;SHT31;52267;51.984;20.956;2023-07-20T06:34:09;17.66;77.20
65598;SHT31;52267;51.984;20.956;2023-07-20T06:36:36;17.73;76.93
65598;SHT31;52267;51.984;20.956;2023-07-20T06:39:04;17.80;77.16
65598;SHT31;52267;51.984;20.956;2023-07-20T06:41:32;17.84;77.08
65598;SHT31;52267;51.984;20.956;2023-07-20T06:43:59;17.88;76.93
65598;SHT31;52267;51.984;20.956;2023-07-20T06:46:27;17.93;76.71
65598;SHT31;52267;51.984;20.956;2023-07-20T06:48:55;18.01;76.51
65598;SHT31;52267;51.984;20.956;2023-07-20T06:51:23;18.08;76.12
65598;SHT31;52267;51.984;20.956;2023-07-20T06:53:50;18.12;76.04
65598;SHT31;52267;51.984;20.956;2023-07-20T06:56:17;18.15;75.84
65598;SHT31;52267;51.984;20.956;2023-07-20T06:58:44;18.16;75.76
65598;SHT31;52267;51.984;20.956;2023-07-20T07:01:12;18.20;75.73
65598;SHT31;52267;51.984;20.956;2023-07-20T07:03:40;18.24;75.57
65598;SHT31;52267;51.984;20.956;2023-07-20T07:06:07;18.25;75.31
65598;SHT31;52267;51.984;20.956;2023-07-20T07:08:34;18.27;75.37
65598;SHT31;52267;51.984;20.956;2023-07-20T07:11:02;18.28;75.01
65598;SHT31;52267;51.984;20.956;2023-07-20T07:13:29;18.26;74.87
65598;SHT31;52267;51.984;20.956;2023-07-20T07:15:57;18.27;74.81
65598;SHT31;52267;51.984;20.956;2023-07-20T07:18:24;18.24;75.03
65598;SHT31;52267;51.984;20.956;2023-07-20T07:20:52;18.20;74.95
65598;SHT31;52267;51.984;20.956;2023-07-20T07:23:20;18.19;74.81
65598;SHT31;52267;51.984;20.956;2023-07-20T07:25:47;18.18;74.89
65598;SHT31;52267;51.984;20.956;2023-07-20T07:28:15;18.13;75.13
65598;SHT31;52267;51.984;20.956;2023-07-20T07:30:42;18.09;74.94
65598;SHT31;52267;51.984;20.956;2023-07-20T07:33:09;18.08;74.81
65598;SHT31;52267;51.984;20.956;2023-07-20T07:35:36;18.08;74.69
65598;SHT31;52267;51.984;20.956;2023-07-20T07:38:04;18.04;74.67
65598;SHT31;52267;51.984;20.956;2023-07-20T07:40:33;18.01;74.72
65598;SHT31;52267;51.984;20.956;2023-07-20T07:43:00;17.99;74.81
65598;SHT31;52267;51.984;20.956;2023-07-20T07:45:27;17.98;74.71
65598;SHT31;52267;51.984;20.956;2023-07-20T07:47:54;17.93;74.64
65598;SHT31;52267;51.984;20.956;2023-07-20T07:50:22;17.92;74.77
65598;SHT31;52267;51.984;20.956;2023-07-20T07:52:49;17.93;74.77
65598;SHT31;52267;51.984;20.956;2023-07-20T07:55:16;17.91;74.79
65598;SHT31;52267;51.984;20.956;2023-07-20T07:57:44;17.96;74.80
65598;SHT31;52267;51.984;20.956;2023-07-20T08:00:14;17.97;75.12
65598;SHT31;52267;51.984;20.956;2023-07-20T08:02:45;17.95;74.83
65598;SHT31;52267;51.984;20.956;2023-07-20T08:05:15;17.97;74.96
65598;SHT31;52267;51.984;20.956;2023-07-20T08:07:43;17.98;74.69
65598;SHT31;52267;51.984;20.956;2023-07-20T08:10:10;17.99;74.86
65598;SHT31;52267;51.984;20.956;2023-07-20T08:12:38;18.00;74.86
65598;SHT31;52267;51.984;20.956;2023-07-20T08:15:05;18.06;74.90
65598;SHT31;52267;51.984;20.956;2023-07-20T08:17:33;18.10;74.87
65598;SHT31;52267;51.984;20.956;2023-07-20T08:20:00;18.15;74.86
65598;SHT31;52267;51.984;20.956;2023-07-20T08:22:28;18.18;74.78
65598;SHT31;52267;51.984;20.956;2023-07-20T08:24:55;18.17;74.79
65598;SHT31;52267;51.984;20.956;2023-07-20T08:27:22;18.18;74.83
65598;SHT31;52267;51.984;20.956;2023-07-20T08:29:51;18.17;74.68
65598;SHT31;52267;51.984;20.956;2023-07-20T08:32:18;18.15;74.93
65598;SHT31;52267;51.984;20.956;2023-07-20T08:34:45;18.14;74.70
65598;SHT31;52267;51.984;20.956;2023-07-20T08:37:13;18.11;74.98
65598;SHT31;52267;51.984;20.956;2023-07-20T08:39:40;18.10;74.94
65598;SHT31;52267;51.984;20.956;2023-07-20T08:42:07;18.09;75.11
65598;SHT31;52267;51.984;20.956;2023-07-20T08:44:37;18.05;75.24
65598;SHT31;52267;51.984;20.956;2023-07-20T08:47:06;18.03;75.26
65598;SHT31;52267;51.984;20.956;2023-07-20T08:49:34;18.01;75.44
65598;SHT31;52267;51.984;20.956;2023-07-20T08:52:02;18.00;75.47
65598;SHT31;52267;51.984;20.956;2023-07-20T08:54:30;18.03;75.35
65598;SHT31;52267;51.984;20.956;2023-07-20T08:57:01;18.02;75.28
65598;SHT31;52267;51.984;20.956;2023-07-20T08:59:31;18.00;75.36
65598;SHT31;52267;51.984;20.956;2023-07-20T09:02:01;17.99;75.46
65598;SHT31;52267;51.984;20.956;2023-07-20T09:04:29;18.03;75.65
65598;SHT31;52267;51.984;20.956;2023-07-20T09:06:56;18.05;75.34
65598;SHT31;52267;51.984;20.956;2023-07-20T09:09:24;18.02;75.41
65598;SHT31;52267;51.984;20.956;2023-07-20T09:11:51;18.04;75.91
65598;SHT31;52267;51.984;20.956;2023-07-20T09:14:18;18.09;75.65
65598;SHT31;52267;51.984;20.956;2023-07-20T09:16:55;18.09;75.83
65598;SHT31;52267;51.984;20.956;2023-07-20T09:19:22;18.09;76.24
65598;SHT31;52267;51.984;20.956;2023-07-20T09:21:50;18.13;76.44
65598;SHT31;52267;51.984;20.956;2023-07-20T09:24:19;18.17;76.08
65598;SHT31;52267;51.984;20.956;2023-07-20T09:26:47;18.17;76.11
65598;SHT31;52267;51.984;20.956;2023-07-20T09:29:17;18.16;76.25
65598;SHT31;52267;51.984;20.956;2023-07-20T09:32:02;18.19;76.93
65598;SHT31;52267;51.984;20.956;2023-07-20T09:34:31;18.28;76.73
65598;SHT31;52267;51.984;20.956;2023-07-20T09:36:59;18.36;76.75
65598;SHT31;52267;51.984;20.956;2023-07-20T09:39:27;18.46;76.87
65598;SHT31;52267;51.984;20.956;2023-07-20T09:41:54;18.58;76.20
65598;SHT31;52267;51.984;20.956;2023-07-20T09:44:27;18.64;75.91
65598;SHT31;52267;51.984;20.956;2023-07-20T09:46:55;18.75;75.91
65598;SHT31;52267;51.984;20.956;2023-07-20T09:49:22;18.91;75.66
65598;SHT31;52267;51.984;20.956;2023-07-20T09:51:49;19.05;75.21
65598;SHT31;52267;51.984;20.956;2023-07-20T09:54:17;19.12;74.80
65598;SHT31;52267;51.984;20.956;2023-07-20T09:56:44;19.17;74.69
65598;SHT31;52267;51.984;20.956;2023-07-20T09:59:12;19.17;74.49
65598;SHT31;52267;51.984;20.956;2023-07-20T10:01:41;19.27;74.31
65598;SHT31;52267;51.984;20.956;2023-07-20T10:04:10;19.38;73.74
65598;SHT31;52267;51.984;20.956;2023-07-20T10:06:39;19.58;73.05
65598;SHT31;52267;51.984;20.956;2023-07-20T10:09:10;19.95;71.81
65598;SHT31;52267;51.984;20.956;2023-07-20T10:11:40;20.26;71.64
65598;SHT31;52267;51.984;20.956;2023-07-20T10:14:12;20.51;71.24
65598;SHT31;52267;51.984;20.956;2023-07-20T10:16:50;20.66;70.80
65598;SHT31;52267;51.984;20.956;2023-07-20T10:19:27;20.80;70.41
65598;SHT31;52267;51.984;20.956;2023-07-20T10:22:16;20.81;69.10
65598;SHT31;52267;51.984;20.956;2023-07-20T10:24:51;20.79;69.33
65598;SHT31;52267;51.984;20.956;2023-07-20T10:27:20;20.76;69.36
65598;SHT31;52267;51.984;20.956;2023-07-20T10:29:47;20.76;69.27
65598;SHT31;52267;51.984;20.956;2023-07-20T10:32:15;20.81;68.96
65598;SHT31;52267;51.984;20.956;2023-07-20T10:34:43;20.90;68.76
65598;SHT31;52267;51.984;20.956;2023-07-20T10:40:28;21.07;68.16
65598;SHT31;52267;51.984;20.956;2023-07-20T10:43:08;21.03;67.60
65598;SHT31;52267;51.984;20.956;2023-07-20T10:45:40;21.07;67.21
65598;SHT31;52267;51.984;20.956;2023-07-20T10:48:27;21.58;66.62
65598;SHT31;52267;51.984;20.956;2023-07-20T10:53:48;22.24;64.71
65598;SHT31;52267;51.984;20.956;2023-07-20T10:56:20;22.24;65.18
65598;SHT31;52267;51.984;20.956;2023-07-20T10:58:55;22.53;63.90
65598;SHT31;52267;51.984;20.956;2023-07-20T11:01:29;22.64;62.92
65598;SHT31;52267;51.984;20.956;2023-07-20T11:04:02;22.69;63.06
65598;SHT31;52267;51.984;20.956;2023-07-20T11:06:36;22.79;62.29
65598;SHT31;52267;51.984;20.956;2023-07-20T11:11:38;23.01;61.56
65598;SHT31;52267;51.984;20.956;2023-07-20T11:14:06;23.26;61.00
65598;SHT31;52267;51.984;20.956;2023-07-20T11:19:22;23.35;59.83
65598;SHT31;52267;51.984;20.956;2023-07-20T11:21:55;23.01;59.61
65598;SHT31;52267;51.984;20.956;2023-07-20T11:24:23;23.09;60.07
65598;SHT31;52267;51.984;20.956;2023-07-20T11:26:52;23.53;58.74
65598;SHT31;52267;51.984;20.956;2023-07-20T11:29:21;23.70;58.47
65598;SHT31;52267;51.984;20.956;2023-07-20T11:31:51;23.70;58.35
65598;SHT31;52267;51.984;20.956;2023-07-20T11:34:19;23.63;58.16
65598;SHT31;52267;51.984;20.956;2023-07-20T11:36:48;23.60;57.75
65598;SHT31;52267;51.984;20.956;2023-07-20T11:39:18;23.53;57.72
65598;SHT31;52267;51.984;20.956;2023-07-20T11:41:49;23.45;57.79
65598;SHT31;52267;51.984;20.956;2023-07-20T11:44:21;23.30;57.81
65598;SHT31;52267;51.984;20.956;2023-07-20T11:47:00;23.14;58.35
65598;SHT31;52267;51.984;20.956;2023-07-20T11:49:30;23.01;57.66
65598;SHT31;52267;51.984;20.956;2023-07-20T11:52:13;23.16;57.81
65598;SHT31;52267;51.984;20.956;2023-07-20T11:54:43;23.60;56.45
65598;SHT31;52267;51.984;20.956;2023-07-20T11:57:17;23.63;57.17
65598;SHT31;52267;51.984;20.956;2023-07-20T11:59:55;23.62;56.68
65598;SHT31;52267;51.984;20.956;2023-07-20T12:02:23;23.49;56.97
65598;SHT31;52267;51.984;20.956;2023-07-20T12:04:54;23.35;56.71
65598;SHT31;52267;51.984;20.956;2023-07-20T12:07:21;23.17;56.32
65598;SHT31;52267;51.984;20.956;2023-07-20T12:12:43;22.99;57.00
65598;SHT31;52267;51.984;20.956;2023-07-20T12:15:21;22.88;57.20
65598;SHT31;52267;51.984;20.956;2023-07-20T12:17:53;22.73;57.91
65598;SHT31;52267;51.984;20.956;2023-07-20T12:20:26;22.66;58.71
65598;SHT31;52267;51.984;20.956;2023-07-20T12:22:59;22.64;58.91
65598;SHT31;52267;51.984;20.956;2023-07-20T12:25:44;22.61;59.32
65598;SHT31;52267;51.984;20.956;2023-07-20T12:28:14;22.56;59.03
65598;SHT31;52267;51.984;20.956;2023-07-20T12:30:44;22.45;58.89
65598;SHT31;52267;51.984;20.956;2023-07-20T12:33:12;22.42;59.01
65598;SHT31;52267;51.984;20.956;2023-07-20T12:35:42;22.36;58.99
65598;SHT31;52267;51.984;20.956;2023-07-20T12:38:12;22.26;59.23
65598;SHT31;52267;51.984;20.956;2023-07-20T12:40:40;22.13;59.18
65598;SHT31;52267;51.984;20.956;2023-07-20T12:43:08;22.01;59.54
65598;SHT31;52267;51.984;20.956;2023-07-20T12:45:35;21.90;59.75
65598;SHT31;52267;51.984;20.956;2023-07-20T12:48:02;21.70;60.12
65598;SHT31;52267;51.984;20.956;2023-07-20T12:50:30;21.44;60.69
65598;SHT31;52267;51.984;20.956;2023-07-20T12:52:57;21.27;61.04
65598;SHT31;52267;51.984;20.956;2023-07-20T12:55:25;21.21;61.09
65598;SHT31;52267;51.984;20.956;2023-07-20T12:57:52;21.05;60.47
65598;SHT31;52267;51.984;20.956;2023-07-20T13:00:19;20.89;60.49
65598;SHT31;52267;51.984;20.956;2023-07-20T13:02:47;20.88;60.68
65598;SHT31;52267;51.984;20.956;2023-07-20T13:05:15;20.95;60.41
65598;SHT31;52267;51.984;20.956;2023-07-20T13:07:43;21.00;60.06
65598;SHT31;52267;51.984;20.956;2023-07-20T13:10:11;20.95;59.65
65598;SHT31;52267;51.984;20.956;2023-07-20T13:12:38;20.92;59.48
65598;SHT31;52267;51.984;20.956;2023-07-20T13:15:07;20.88;59.14
65598;SHT31;52267;51.984;20.956;2023-07-20T13:17:36;20.90;59.23
65598;SHT31;52267;51.984;20.956;2023-07-20T13:20:06;20.91;58.82
65598;SHT31;52267;51.984;20.956;2023-07-20T13:22:37;20.94;58.70
65598;SHT31;52267;51.984;20.956;2023-07-20T13:25:05;21.01;58.66
65598;SHT31;52267;51.984;20.956;2023-07-20T13:27:34;21.05;58.35
65598;SHT31;52267;51.984;20.956;2023-07-20T13:30:03;21.05;58.24
65598;SHT31;52267;51.984;20.956;2023-07-20T13:32:39;21.06;58.51
65598;SHT31;52267;51.984;20.956;2023-07-20T13:35:07;21.06;59.24
65598;SHT31;52267;51.984;20.956;2023-07-20T13:37:34;21.09;59.28
65598;SHT31;52267;51.984;20.956;2023-07-20T13:40:02;21.13;59.37
65598;SHT31;52267;51.984;20.956;2023-07-20T13:42:34;21.14;59.58
65598;SHT31;52267;51.984;20.956;2023-07-20T13:45:01;21.16;59.66
65598;SHT31;52267;51.984;20.956;2023-07-20T13:47:30;21.13;60.24
65598;SHT31;52267;51.984;20.956;2023-07-20T13:49:57;21.11;60.82
65598;SHT31;52267;51.984;20.956;2023-07-20T13:52:24;21.12;60.54
65598;SHT31;52267;51.984;20.956;2023-07-20T13:54:51;21.11;60.72
65598;SHT31;52267;51.984;20.956;2023-07-20T13:57:19;21.11;60.72
65598;SHT31;52267;51.984;20.956;2023-07-20T13:59:46;21.11;60.87
65598;SHT31;52267;51.984;20.956;2023-07-20T14:02:13;21.04;60.73
65598;SHT31;52267;51.984;20.956;2023-07-20T14:04:42;20.89;60.80
65598;SHT31;52267;51.984;20.956;2023-07-20T14:07:09;20.71;61.02
65598;SHT31;52267;51.984;20.956;2023-07-20T14:09:37;20.58;61.28
65598;SHT31;52267;51.984;20.956;2023-07-20T14:12:05;20.58;61.45
65598;SHT31;52267;51.984;20.956;2023-07-20T14:14:33;20.58;61.50
65598;SHT31;52267;51.984;20.956;2023-07-20T14:17:00;20.59;61.59
65598;SHT31;52267;51.984;20.956;2023-07-20T14:19:28;20.57;62.18
65598;SHT31;52267;51.984;20.956;2023-07-20T14:21:55;20.57;62.09
65598;SHT31;52267;51.984;20.956;2023-07-20T14:24:22;20.60;61.89
65598;SHT31;52267;51.984;20.956;2023-07-20T14:26:49;20.64;61.94
65598;SHT31;52267;51.984;20.956;2023-07-20T14:29:16;20.63;62.17
65598;SHT31;52267;51.984;20.956;2023-07-20T14:31:45;20.64;61.94
65598;SHT31;52267;51.984;20.956;2023-07-20T14:34:17;20.62;61.96
65598;SHT31;52267;51.984;20.956;2023-07-20T14:36:45;20.63;62.25
65598;SHT31;52267;51.984;20.956;2023-07-20T14:39:12;20.64;62.29
65598;SHT31;52267;51.984;20.956;2023-07-20T14:41:40;20.60;62.46
65598;SHT31;52267;51.984;20.956;2023-07-20T14:44:08;20.57;63.30
65598;SHT31;52267;51.984;20.956;2023-07-20T14:46:36;20.59;64.04
65598;SHT31;52267;51.984;20.956;2023-07-20T14:49:04;20.61;63.79
65598;SHT31;52267;51.984;20.956;2023-07-20T14:51:31;20.63;64.39
65598;SHT31;52267;51.984;20.956;2023-07-20T14:53:59;20.67;64.44
65598;SHT31;52267;51.984;20.956;2023-07-20T14:56:27;20.67;63.70
65598;SHT31;52267;51.984;20.956;2023-07-20T14:58:55;20.72;63.85
65598;SHT31;52267;51.984;20.956;2023-07-20T15:01:24;21.03;63.92
65598;SHT31;52267;51.984;20.956;2023-07-20T15:03:51;21.38;63.92
65598;SHT31;52267;51.984;20.956;2023-07-20T15:06:21;21.69;63.52
65598;SHT31;52267;51.984;20.956;2023-07-20T15:08:50;21.99;63.14
65598;SHT31;52267;51.984;20.956;2023-07-20T15:11:17;22.26;62.01
65598;SHT31;52267;51.984;20.956;2023-07-20T15:13:44;22.43;61.33
65598;SHT31;52267;51.984;20.956;2023-07-20T15:16:11;22.58;60.99
65598;SHT31;52267;51.984;20.956;2023-07-20T15:18:38;22.75;60.69
65598;SHT31;52267;51.984;20.956;2023-07-20T15:21:06;22.90;60.07
65598;SHT31;52267;51.984;20.956;2023-07-20T15:23:33;22.94;59.40
65598;SHT31;52267;51.984;20.956;2023-07-20T15:26:00;23.12;59.14
65598;SHT31;52267;51.984;20.956;2023-07-20T15:28:27;23.20;58.48
65598;SHT31;52267;51.984;20.956;2023-07-20T15:31:01;23.23;57.78
65598;SHT31;52267;51.984;20.956;2023-07-20T15:33:30;23.31;57.80
65598;SHT31;52267;51.984;20.956;2023-07-20T15:35:58;23.32;57.63
65598;SHT31;52267;51.984;20.956;2023-07-20T15:38:25;23.32;57.41
65598;SHT31;52267;51.984;20.956;2023-07-20T15:40:52;23.28;56.85
65598;SHT31;52267;51.984;20.956;2023-07-20T15:43:22;23.26;56.55
65598;SHT31;52267;51.984;20.956;2023-07-20T15:45:49;23.24;56.21
65598;SHT31;52267;51.984;20.956;2023-07-20T15:48:16;23.31;56.26
65598;SHT31;52267;51.984;20.956;2023-07-20T15:50:45;23.30;55.73